createdAt,value
2023-05-14T00:12:42.268Z,10.89
2023-05-14T00:27:47.789Z,10.89
2023-05-14T00:42:53.289Z,10.87
2023-05-14T00:58:01.161Z,10.95
2023-05-14T01:13:15.152Z,10.95
2023-05-14T01:28:24.742Z,10.96
2023-05-14T01:43:31.701Z,10.75
2023-05-14T01:58:37.674Z,10.54
2023-05-14T02:13:43.528Z,10.66
2023-05-14T02:28:49.230Z,10.71
2023-05-14T02:43:55.704Z,10.71
2023-05-14T02:59:01.555Z,10.54
2023-05-14T03:14:07.673Z,10.45
2023-05-14T03:29:13.444Z,10.33
2023-05-14T03:44:19.105Z,10.27
2023-05-14T03:59:24.819Z,10.37
2023-05-14T04:14:30.563Z,10.43
2023-05-14T04:29:36.466Z,10.45
2023-05-14T04:44:42.181Z,10.43
2023-05-14T04:59:47.786Z,10.67
2023-05-14T05:14:53.649Z,10.75
2023-05-14T05:29:59.704Z,11.00
2023-05-14T05:45:05.764Z,11.48
2023-05-14T06:00:14.474Z,11.44
2023-05-14T06:15:20.148Z,12.03
2023-05-14T06:30:26.096Z,12.02
2023-05-14T06:45:33.272Z,12.84
2023-05-14T07:00:39.070Z,13.23
2023-05-14T07:15:44.588Z,13.74
2023-05-14T07:30:50.108Z,14.56
2023-05-14T07:45:55.865Z,14.69
2023-05-14T08:01:01.695Z,14.91
2023-05-14T08:16:07.958Z,17.04
2023-05-14T08:31:14.878Z,16.39
2023-05-14T08:46:22.668Z,16.44
2023-05-14T09:01:28.462Z,16.85
2023-05-14T09:16:34.003Z,17.73
2023-05-14T09:31:39.705Z,17.46
2023-05-14T09:46:45.550Z,17.56
2023-05-14T10:01:51.306Z,19.29
2023-05-14T10:17:00.277Z,20.51
2023-05-14T10:32:08.843Z,21.36
2023-05-14T10:47:14.814Z,19.89
2023-05-14T11:02:25.964Z,19.77
2023-05-14T11:17:32.870Z,18.85
2023-05-14T11:32:39.335Z,18.27
2023-05-14T11:47:45.050Z,18.27
2023-05-14T12:02:51.542Z,18.86
2023-05-14T12:17:57.246Z,19.95
2023-05-14T12:33:02.825Z,21.29
2023-05-14T12:48:08.741Z,20.88
2023-05-14T13:03:14.675Z,20.71
2023-05-14T13:18:20.592Z,21.50
2023-05-14T13:33:26.174Z,21.48
2023-05-14T13:48:32.311Z,22.38
2023-05-14T14:03:37.876Z,21.16
2023-05-14T14:18:43.768Z,20.40
2023-05-14T14:33:49.544Z,20.62
2023-05-14T14:48:55.302Z,19.95
2023-05-14T15:04:00.975Z,19.20
2023-05-14T15:19:06.690Z,19.99
2023-05-14T15:34:12.460Z,20.77
2023-05-14T15:49:17.928Z,19.33
2023-05-14T16:04:23.332Z,19.72
2023-05-14T16:19:28.826Z,18.96
2023-05-14T16:34:34.422Z,17.33
2023-05-14T16:49:40.037Z,16.71
2023-05-14T17:04:46.400Z,16.98
2023-05-14T17:19:51.991Z,16.79
2023-05-14T17:34:57.802Z,16.37
2023-05-14T17:50:03.475Z,15.77
2023-05-14T18:05:09.860Z,16.11
2023-05-14T18:20:15.482Z,15.65
2023-05-14T18:35:21.197Z,15.30
2023-05-14T18:50:26.725Z,14.57
2023-05-14T19:05:32.417Z,14.57
2023-05-14T19:20:38.539Z,14.29
2023-05-14T19:35:44.113Z,14.14
2023-05-14T19:50:49.602Z,13.79
2023-05-14T20:05:55.654Z,13.83
2023-05-14T20:21:01.538Z,13.80
2023-05-14T20:36:07.812Z,13.74
2023-05-14T20:51:13.427Z,13.52
2023-05-14T21:06:18.866Z,13.11
2023-05-14T21:21:24.442Z,12.93
2023-05-14T21:36:30.124Z,12.95
2023-05-14T21:51:36.131Z,12.77
2023-05-14T22:06:42.190Z,12.57
2023-05-14T22:21:47.746Z,12.32
2023-05-14T22:36:53.346Z,12.30
2023-05-14T22:51:59.018Z,11.92
2023-05-14T23:07:04.781Z,11.81
2023-05-14T23:22:10.516Z,11.63
2023-05-14T23:37:16.158Z,11.48
2023-05-14T23:52:21.658Z,11.27
